createdAt,value
2023-05-25T00:01:24.406Z,11.12
2023-05-25T00:03:52.613Z,11.11
2023-05-25T00:06:20.034Z,11.07
2023-05-25T00:08:47.919Z,11.06
2023-05-25T00:11:17.054Z,11.03
2023-05-25T00:13:44.301Z,11.03
2023-05-25T00:16:11.417Z,11.04
2023-05-25T00:18:38.735Z,11.06
2023-05-25T00:21:06.865Z,11.10
2023-05-25T00:23:34.080Z,11.12
2023-05-25T00:26:03.118Z,11.13
2023-05-25T00:28:30.325Z,11.17
2023-05-25T00:30:57.586Z,11.20
2023-05-25T00:33:24.902Z,11.21
2023-05-25T00:35:54.084Z,11.26
2023-05-25T00:38:21.810Z,11.27
2023-05-25T00:40:49.093Z,11.30
2023-05-25T00:43:16.657Z,11.33
2023-05-25T00:45:43.972Z,11.35
2023-05-25T00:48:11.411Z,11.34
2023-05-25T00:50:42.962Z,11.38
2023-05-25T00:53:11.649Z,11.39
2023-05-25T00:55:44.727Z,11.43
2023-05-25T00:58:14.485Z,11.40
2023-05-25T01:00:42.926Z,11.39
2023-05-25T01:03:13.026Z,11.39
2023-05-25T01:05:45.060Z,11.36
2023-05-25T01:08:14.421Z,11.34
2023-05-25T01:10:42.978Z,11.29
2023-05-25T01:13:10.670Z,11.27
2023-05-25T01:15:38.508Z,11.22
2023-05-25T01:18:05.989Z,11.20
2023-05-25T01:20:33.644Z,11.18
2023-05-25T01:23:12.058Z,11.15
2023-05-25T01:26:00.160Z,11.08
2023-05-25T01:28:40.287Z,11.05
2023-05-25T01:31:08.894Z,11.02
2023-05-25T01:33:36.704Z,10.99
2023-05-25T01:36:04.685Z,10.95
2023-05-25T01:38:32.076Z,10.90
2023-05-25T01:41:00.405Z,10.88
2023-05-25T01:43:27.636Z,10.85
2023-05-25T01:46:36.250Z,10.82
2023-05-25T01:49:09.527Z,10.79
2023-05-25T01:52:01.479Z,10.78
2023-05-25T01:54:52.600Z,10.78
2023-05-25T01:57:20.900Z,10.76
2023-05-25T01:59:49.699Z,10.74
2023-05-25T02:02:20.104Z,10.70
2023-05-25T02:04:47.633Z,10.69
2023-05-25T02:07:15.004Z,10.66
2023-05-25T02:09:42.187Z,10.63
2023-05-25T02:12:09.866Z,10.61
2023-05-25T02:14:37.097Z,10.58
2023-05-25T02:17:04.562Z,10.54
2023-05-25T02:19:31.774Z,10.52
2023-05-25T02:21:59.053Z,10.53
2023-05-25T02:24:26.569Z,10.50
2023-05-25T02:26:53.787Z,10.48
2023-05-25T02:29:21.102Z,10.44
2023-05-25T02:31:48.475Z,10.43
2023-05-25T02:34:15.759Z,10.41
2023-05-25T02:36:44.928Z,10.38
2023-05-25T02:39:12.179Z,10.37
2023-05-25T02:41:39.516Z,10.36
2023-05-25T02:44:06.740Z,10.32
2023-05-25T02:46:34.163Z,10.33
2023-05-25T02:49:01.649Z,10.32
2023-05-25T02:51:29.263Z,10.29
2023-05-25T02:53:56.624Z,10.26
2023-05-25T02:56:23.863Z,10.25
2023-05-25T02:58:51.268Z,10.24
2023-05-25T03:01:19.015Z,10.22
2023-05-25T03:03:47.350Z,10.20
2023-05-25T03:06:14.780Z,10.17
2023-05-25T03:08:41.913Z,10.17
2023-05-25T03:11:09.121Z,10.17
2023-05-25T03:13:36.328Z,10.17
2023-05-25T03:16:03.522Z,10.16
2023-05-25T03:18:30.894Z,10.16
2023-05-25T03:20:58.078Z,10.13
2023-05-25T03:23:25.425Z,10.14
2023-05-25T03:25:52.604Z,10.15
2023-05-25T03:28:20.897Z,10.15
2023-05-25T03:30:48.071Z,10.18
2023-05-25T03:33:15.315Z,10.18
2023-05-25T03:35:42.843Z,10.18
2023-05-25T03:38:10.506Z,10.19
2023-05-25T03:40:37.713Z,10.19
2023-05-25T03:43:04.976Z,10.19
2023-05-25T03:45:32.242Z,10.19
2023-05-25T03:47:59.497Z,10.22
2023-05-25T03:50:26.702Z,10.23
2023-05-25T03:52:53.970Z,10.25
2023-05-25T03:55:21.190Z,10.27
2023-05-25T03:57:48.417Z,10.30
2023-05-25T04:00:16.974Z,10.29
2023-05-25T04:02:44.368Z,10.33
2023-05-25T04:05:11.698Z,10.37
2023-05-25T04:07:38.910Z,10.43
2023-05-25T04:10:07.266Z,10.49
2023-05-25T04:12:34.566Z,10.56
2023-05-25T04:15:03.923Z,10.63
2023-05-25T04:17:31.569Z,10.75
2023-05-25T04:19:58.932Z,10.82
2023-05-25T04:22:26.118Z,10.89
2023-05-25T04:24:54.052Z,10.97
2023-05-25T04:27:22.207Z,11.02
2023-05-25T04:29:50.275Z,11.07
2023-05-25T04:32:18.655Z,11.09
2023-05-25T04:34:46.757Z,11.13
2023-05-25T04:37:14.189Z,11.18
2023-05-25T04:39:41.425Z,11.24
2023-05-25T04:42:08.820Z,11.29
2023-05-25T04:44:36.166Z,11.31
2023-05-25T04:47:03.386Z,11.36
2023-05-25T04:49:31.330Z,11.42
2023-05-25T04:51:58.885Z,11.46
2023-05-25T04:54:26.010Z,11.52
2023-05-25T04:56:53.438Z,11.57
2023-05-25T04:59:20.922Z,11.63
2023-05-25T05:01:48.419Z,11.70
2023-05-25T05:04:16.539Z,11.77
2023-05-25T05:06:44.291Z,11.79
2023-05-25T05:09:11.937Z,11.85
2023-05-25T05:11:39.216Z,11.91
2023-05-25T05:14:06.469Z,12.00
2023-05-25T05:16:35.088Z,12.07
2023-05-25T05:19:02.532Z,12.13
2023-05-25T05:21:29.867Z,12.20
2023-05-25T05:23:57.178Z,12.29
2023-05-25T05:26:24.521Z,12.33
2023-05-25T05:28:52.630Z,12.41
2023-05-25T05:31:20.005Z,12.46
2023-05-25T05:33:47.405Z,12.55
2023-05-25T05:36:14.713Z,12.63
2023-05-25T05:38:42.546Z,12.73
2023-05-25T05:41:13.801Z,12.84
2023-05-25T05:43:42.847Z,12.97
2023-05-25T05:46:13.421Z,13.06
2023-05-25T05:48:41.401Z,13.16
2023-05-25T05:51:11.598Z,13.27
2023-05-25T05:53:38.866Z,13.35
2023-05-25T05:56:07.047Z,13.40
2023-05-25T05:58:34.299Z,13.55
2023-05-25T06:01:02.215Z,13.62
2023-05-25T06:03:29.451Z,13.71
2023-05-25T06:05:56.724Z,13.82
2023-05-25T06:08:24.055Z,13.84
2023-05-25T06:10:51.277Z,13.90
2023-05-25T06:13:18.471Z,14.01
2023-05-25T06:15:45.853Z,14.12
2023-05-25T06:18:14.368Z,14.29
2023-05-25T06:20:41.896Z,14.44
2023-05-25T06:23:11.461Z,14.55
2023-05-25T06:25:38.596Z,14.73
2023-05-25T06:28:05.757Z,14.79
2023-05-25T06:30:33.033Z,14.93
2023-05-25T06:33:00.407Z,15.04
2023-05-25T06:35:29.410Z,15.06
2023-05-25T06:37:56.724Z,15.13
2023-05-25T06:40:23.874Z,15.18
2023-05-25T06:42:51.087Z,15.22
2023-05-25T06:45:18.283Z,15.26
2023-05-25T06:47:45.576Z,15.36
2023-05-25T06:50:13.613Z,15.52
2023-05-25T06:52:40.810Z,15.57
2023-05-25T06:55:08.836Z,15.50
2023-05-25T06:57:36.210Z,15.52
2023-05-25T07:00:04.798Z,15.63
2023-05-25T07:02:32.023Z,15.75
2023-05-25T07:04:59.315Z,15.87
2023-05-25T07:07:26.733Z,15.92
2023-05-25T07:09:53.917Z,15.96
2023-05-25T07:12:21.492Z,16.08
2023-05-25T07:14:48.787Z,16.27
2023-05-25T07:17:16.180Z,16.37
2023-05-25T07:19:43.522Z,16.54
2023-05-25T07:22:10.977Z,16.61
2023-05-25T07:24:38.289Z,16.71
2023-05-25T07:27:06.852Z,16.84
2023-05-25T07:29:34.113Z,16.90
2023-05-25T07:32:01.337Z,16.99
2023-05-25T07:34:28.492Z,17.08
2023-05-25T07:36:55.716Z,17.09
2023-05-25T07:39:22.878Z,17.15
2023-05-25T07:41:50.072Z,17.19
2023-05-25T07:44:17.423Z,17.14
2023-05-25T07:46:44.652Z,17.11
2023-05-25T07:49:15.926Z,17.06
2023-05-25T07:51:44.789Z,17.07
2023-05-25T07:54:12.162Z,17.09
2023-05-25T07:56:39.502Z,17.04
2023-05-25T07:59:06.732Z,16.65
2023-05-25T08:01:33.943Z,16.54
2023-05-25T08:04:01.241Z,16.81
2023-05-25T08:06:28.526Z,17.21
2023-05-25T08:08:55.827Z,17.55
2023-05-25T08:11:26.319Z,17.76
2023-05-25T08:13:53.587Z,17.76
2023-05-25T08:16:20.919Z,17.69
2023-05-25T08:18:48.197Z,17.63
2023-05-25T08:21:15.518Z,17.62
2023-05-25T08:23:42.889Z,17.99
2023-05-25T08:26:29.031Z,18.18
2023-05-25T08:28:58.524Z,18.02
2023-05-25T08:31:25.857Z,18.04
2023-05-25T08:33:53.088Z,17.96
2023-05-25T08:36:20.274Z,18.08
2023-05-25T08:38:47.447Z,18.38
2023-05-25T08:41:14.817Z,18.34
2023-05-25T08:43:42.492Z,18.30
2023-05-25T08:46:09.741Z,18.32
2023-05-25T08:48:42.196Z,18.43
2023-05-25T08:51:11.641Z,18.59
2023-05-25T08:53:41.168Z,18.83
2023-05-25T08:56:18.443Z,19.03
2023-05-25T08:58:54.252Z,18.90
2023-05-25T09:01:22.221Z,19.06
2023-05-25T09:03:50.230Z,19.01
2023-05-25T09:06:17.647Z,18.79
2023-05-25T09:08:45.279Z,18.01
2023-05-25T09:11:16.558Z,17.86
2023-05-25T09:13:44.715Z,17.91
2023-05-25T09:16:11.941Z,18.09
2023-05-25T09:18:40.121Z,18.31
2023-05-25T09:21:07.318Z,18.66
2023-05-25T09:23:35.379Z,19.01
2023-05-25T09:26:02.628Z,19.25
2023-05-25T09:28:29.773Z,19.13
2023-05-25T09:30:57.046Z,19.25
2023-05-25T09:33:24.327Z,19.32
2023-05-25T09:35:51.633Z,19.36
2023-05-25T09:38:19.311Z,19.31
2023-05-25T09:40:46.949Z,18.84
2023-05-25T09:43:24.921Z,18.78
2023-05-25T09:46:00.080Z,18.64
2023-05-25T09:48:29.344Z,18.97
2023-05-25T09:50:56.832Z,19.38
2023-05-25T09:53:24.149Z,19.56
2023-05-25T09:55:54.144Z,19.39
2023-05-25T09:58:27.369Z,19.25
2023-05-25T10:00:55.222Z,18.96
2023-05-25T10:03:22.723Z,18.81
2023-05-25T10:05:50.450Z,18.76
2023-05-25T10:08:20.190Z,18.64
2023-05-25T10:10:49.963Z,18.75
2023-05-25T10:13:22.009Z,18.54
2023-05-25T10:15:53.093Z,18.68
2023-05-25T10:18:25.657Z,19.05
2023-05-25T10:21:02.481Z,19.50
2023-05-25T10:23:41.936Z,19.80
2023-05-25T10:26:10.114Z,19.87
2023-05-25T10:28:39.698Z,20.00
2023-05-25T10:31:07.290Z,20.31
2023-05-25T10:33:34.940Z,20.45
2023-05-25T10:36:10.594Z,20.68
2023-05-25T10:38:40.287Z,20.46
2023-05-25T10:41:09.821Z,20.43
2023-05-25T10:43:40.925Z,20.34
2023-05-25T10:46:08.638Z,20.35
2023-05-25T10:48:37.324Z,20.18
2023-05-25T10:51:04.664Z,20.17
2023-05-25T10:53:31.887Z,20.26
2023-05-25T10:56:03.850Z,20.57
2023-05-25T10:58:31.898Z,20.72
2023-05-25T11:01:03.381Z,20.89
2023-05-25T11:04:10.055Z,20.84
2023-05-25T11:06:37.638Z,20.47
2023-05-25T11:09:06.575Z,20.53
2023-05-25T11:11:58.785Z,20.93
2023-05-25T11:14:42.254Z,21.16
2023-05-25T11:17:11.689Z,21.22
2023-05-25T11:20:02.208Z,21.20
2023-05-25T11:22:37.404Z,20.80
2023-05-25T11:25:24.553Z,20.81
2023-05-25T11:27:54.293Z,20.94
2023-05-25T11:30:28.003Z,21.21
2023-05-25T11:32:59.504Z,21.33
2023-05-25T11:35:26.905Z,21.55
2023-05-25T11:37:55.062Z,21.53
2023-05-25T11:40:25.599Z,21.45
2023-05-25T11:42:52.876Z,21.81
2023-05-25T11:45:22.370Z,22.16
2023-05-25T11:47:49.607Z,21.86
2023-05-25T11:50:17.282Z,21.69
2023-05-25T11:52:44.471Z,21.89
2023-05-25T11:55:15.822Z,22.23
2023-05-25T11:57:43.181Z,22.67
2023-05-25T12:00:11.441Z,23.10
2023-05-25T12:02:39.817Z,23.18
2023-05-25T12:05:09.478Z,23.02
2023-05-25T12:07:43.745Z,22.88
2023-05-25T12:10:12.586Z,23.19
2023-05-25T12:12:44.182Z,22.92
2023-05-25T12:15:13.757Z,22.47
2023-05-25T12:17:42.742Z,22.66
2023-05-25T12:20:12.030Z,23.08
2023-05-25T12:22:39.837Z,23.25
2023-05-25T12:25:08.228Z,22.75
2023-05-25T12:27:35.757Z,22.24
2023-05-25T12:30:04.669Z,22.12
2023-05-25T12:32:31.970Z,21.97
2023-05-25T12:35:06.533Z,21.91
2023-05-25T12:37:34.366Z,21.84
2023-05-25T12:40:01.630Z,21.45
2023-05-25T12:42:31.220Z,21.11
2023-05-25T12:45:00.756Z,20.97
2023-05-25T12:47:30.121Z,20.98
2023-05-25T12:50:14.001Z,20.90
2023-05-25T12:52:43.035Z,21.12
2023-05-25T12:55:26.101Z,21.40
2023-05-25T12:57:58.230Z,21.65
2023-05-25T13:00:32.188Z,21.76
2023-05-25T13:03:00.125Z,21.91
2023-05-25T13:05:29.173Z,21.79
2023-05-25T13:07:57.727Z,21.71
2023-05-25T13:10:25.859Z,21.82
2023-05-25T13:12:53.911Z,21.72
2023-05-25T13:15:21.724Z,21.53
2023-05-25T13:17:50.572Z,21.82
2023-05-25T13:20:22.556Z,22.50
2023-05-25T13:22:51.042Z,23.00
2023-05-25T13:25:19.016Z,22.93
2023-05-25T13:27:51.237Z,22.83
2023-05-25T13:30:18.825Z,22.73
2023-05-25T13:32:47.020Z,22.80
2023-05-25T13:35:36.955Z,22.91
2023-05-25T13:38:04.253Z,23.53
2023-05-25T13:40:31.469Z,24.07
2023-05-25T13:42:58.633Z,24.60
2023-05-25T13:45:25.897Z,25.23
2023-05-25T13:47:53.166Z,25.71
2023-05-25T13:50:20.468Z,25.61
2023-05-25T13:52:48.997Z,25.05
2023-05-25T13:55:16.417Z,24.63
2023-05-25T13:57:43.564Z,24.22
2023-05-25T14:00:11.091Z,23.83
2023-05-25T14:02:38.384Z,23.92
2023-05-25T14:05:05.915Z,23.99
2023-05-25T14:07:33.205Z,24.15
2023-05-25T14:10:00.703Z,24.73
2023-05-25T14:12:27.968Z,25.17
2023-05-25T14:14:55.773Z,25.62
2023-05-25T14:17:24.829Z,25.64
2023-05-25T14:19:52.366Z,25.94
2023-05-25T14:22:19.628Z,26.27
2023-05-25T14:24:46.792Z,27.00
2023-05-25T14:27:16.099Z,27.27
2023-05-25T14:29:43.341Z,29.00
2023-05-25T14:32:10.848Z,30.62
2023-05-25T14:34:38.054Z,31.60
2023-05-25T14:37:05.410Z,30.86
2023-05-25T14:39:32.613Z,29.95
2023-05-25T14:41:59.953Z,31.55
2023-05-25T14:44:27.289Z,33.86
2023-05-25T14:46:54.986Z,35.89
2023-05-25T14:49:25.125Z,36.59
2023-05-25T14:51:54.003Z,37.09
2023-05-25T14:54:21.298Z,34.35
2023-05-25T14:56:48.529Z,33.31
2023-05-25T14:59:15.868Z,35.82
2023-05-25T15:01:43.164Z,37.30
2023-05-25T15:04:10.685Z,38.60
2023-05-25T15:06:39.395Z,37.59
2023-05-25T15:09:06.925Z,38.71
2023-05-25T15:11:34.139Z,40.91
2023-05-25T15:14:01.498Z,42.38
2023-05-25T15:16:28.753Z,41.10
2023-05-25T15:18:56.121Z,38.43
2023-05-25T15:21:23.391Z,38.42
2023-05-25T15:23:50.962Z,36.44
2023-05-25T15:26:18.168Z,38.69
2023-05-25T15:28:45.352Z,40.60
2023-05-25T15:31:12.713Z,41.62
2023-05-25T15:33:53.842Z,40.01
2023-05-25T15:36:25.467Z,37.08
2023-05-25T15:38:52.719Z,36.88
2023-05-25T15:41:19.937Z,36.60
2023-05-25T15:43:57.964Z,33.87
2023-05-25T15:46:25.865Z,32.32
2023-05-25T15:48:54.088Z,31.35
2023-05-25T15:51:21.577Z,29.48
2023-05-25T15:53:48.892Z,27.83
2023-05-25T15:56:16.077Z,27.11
2023-05-25T15:58:47.024Z,29.99
2023-05-25T16:01:14.507Z,33.22
2023-05-25T16:03:49.859Z,35.06
2023-05-25T16:06:17.480Z,37.65
2023-05-25T16:08:44.771Z,38.34
2023-05-25T16:11:12.056Z,38.59
2023-05-25T16:13:39.195Z,39.97
2023-05-25T16:16:06.976Z,39.30
2023-05-25T16:18:34.247Z,39.02
2023-05-25T16:21:01.774Z,39.00
2023-05-25T16:23:28.983Z,37.46
2023-05-25T16:25:56.164Z,35.38
2023-05-25T16:28:23.433Z,33.15
2023-05-25T16:30:50.770Z,31.16
2023-05-25T16:33:17.930Z,29.38
2023-05-25T16:35:45.669Z,27.77
2023-05-25T16:38:13.047Z,26.61
2023-05-25T16:40:40.177Z,25.74
2023-05-25T16:43:07.460Z,24.87
2023-05-25T16:45:34.727Z,24.14
2023-05-25T16:48:02.022Z,23.52
2023-05-25T16:50:29.262Z,23.17
2023-05-25T16:52:57.053Z,22.72
2023-05-25T16:55:24.341Z,22.56
2023-05-25T16:57:51.524Z,22.50
2023-05-25T17:00:18.769Z,22.24
2023-05-25T17:02:46.030Z,21.93
2023-05-25T17:05:13.250Z,21.70
2023-05-25T17:07:40.915Z,21.43
2023-05-25T17:10:08.803Z,21.32
2023-05-25T17:12:36.403Z,21.31
2023-05-25T17:15:03.855Z,21.19
2023-05-25T17:17:31.194Z,20.88
2023-05-25T17:19:58.873Z,20.69
2023-05-25T17:22:26.137Z,20.42
2023-05-25T17:24:53.349Z,20.30
2023-05-25T17:27:20.532Z,20.28
2023-05-25T17:29:47.786Z,20.18
2023-05-25T17:32:15.038Z,20.00
2023-05-25T17:34:42.250Z,19.84
2023-05-25T17:37:09.510Z,19.77
2023-05-25T17:39:36.784Z,19.81
2023-05-25T17:42:04.325Z,19.89
2023-05-25T17:44:31.470Z,19.90
2023-05-25T17:46:58.691Z,19.93
2023-05-25T17:49:25.833Z,19.93
2023-05-25T17:51:53.260Z,19.94
2023-05-25T17:54:25.334Z,19.93
2023-05-25T17:56:52.721Z,19.86
2023-05-25T17:59:19.862Z,19.81
2023-05-25T18:01:47.250Z,19.66
2023-05-25T18:04:14.579Z,19.58
2023-05-25T18:06:41.969Z,19.47
2023-05-25T18:09:09.154Z,19.33
2023-05-25T18:11:36.670Z,19.23
2023-05-25T18:14:07.774Z,19.09
2023-05-25T18:16:39.550Z,18.90
2023-05-25T18:19:09.234Z,18.75
2023-05-25T18:21:40.203Z,18.64
2023-05-25T18:24:08.401Z,18.54
2023-05-25T18:26:36.141Z,18.38
2023-05-25T18:29:03.519Z,18.30
2023-05-25T18:31:32.115Z,18.22
2023-05-25T18:34:00.300Z,18.17
2023-05-25T18:36:27.598Z,18.10
2023-05-25T18:38:54.812Z,18.05
2023-05-25T18:41:24.192Z,17.98
2023-05-25T18:43:51.584Z,17.89
2023-05-25T18:46:18.993Z,17.81
2023-05-25T18:48:46.478Z,17.74
2023-05-25T18:51:15.421Z,17.62
2023-05-25T18:53:42.986Z,17.54
2023-05-25T18:56:10.331Z,17.43
2023-05-25T18:58:37.662Z,17.35
2023-05-25T19:01:05.029Z,17.28
2023-05-25T19:03:32.419Z,17.20
2023-05-25T19:05:59.677Z,17.11
2023-05-25T19:08:26.831Z,17.06
2023-05-25T19:10:54.081Z,17.03
2023-05-25T19:13:22.854Z,16.95
2023-05-25T19:15:50.870Z,16.88
2023-05-25T19:18:18.303Z,16.83
2023-05-25T19:20:46.055Z,16.76
2023-05-25T19:23:13.654Z,16.64
2023-05-25T19:25:40.866Z,16.54
2023-05-25T19:28:08.179Z,16.48
2023-05-25T19:30:35.473Z,16.42
2023-05-25T19:33:02.766Z,16.37
2023-05-25T19:35:30.036Z,16.32
2023-05-25T19:37:57.997Z,16.29
2023-05-25T19:40:26.484Z,16.25
2023-05-25T19:42:53.693Z,16.20
2023-05-25T19:45:21.129Z,16.18
2023-05-25T19:47:48.530Z,16.13
2023-05-25T19:50:16.432Z,16.10
2023-05-25T19:52:43.871Z,16.08
2023-05-25T19:55:11.317Z,16.09
2023-05-25T19:57:38.687Z,16.06
2023-05-25T20:00:11.620Z,16.03
2023-05-25T20:02:52.638Z,15.97
2023-05-25T20:05:21.441Z,15.89
2023-05-25T20:07:50.774Z,15.83
2023-05-25T20:10:18.278Z,15.77
2023-05-25T20:12:45.490Z,15.72
2023-05-25T20:15:12.761Z,15.69
2023-05-25T20:17:40.101Z,15.65
2023-05-25T20:20:07.643Z,15.61
2023-05-25T20:22:34.847Z,15.56
2023-05-25T20:25:02.264Z,15.50
2023-05-25T20:27:29.415Z,15.44
2023-05-25T20:29:56.804Z,15.41
2023-05-25T20:32:24.142Z,15.35
2023-05-25T20:34:51.384Z,15.29
2023-05-25T20:37:18.641Z,15.26
2023-05-25T20:39:45.868Z,15.19
2023-05-25T20:42:14.057Z,15.15
2023-05-25T20:44:41.371Z,15.10
2023-05-25T20:47:08.659Z,15.04
2023-05-25T20:49:35.895Z,15.00
2023-05-25T20:52:03.337Z,14.96
2023-05-25T20:54:30.620Z,14.89
2023-05-25T20:56:57.898Z,14.82
2023-05-25T20:59:25.215Z,14.76
2023-05-25T21:01:52.691Z,14.72
2023-05-25T21:04:20.073Z,14.67
2023-05-25T21:06:47.277Z,14.63
2023-05-25T21:09:14.590Z,14.58
2023-05-25T21:11:41.829Z,14.54
2023-05-25T21:14:09.078Z,14.49
2023-05-25T21:16:36.372Z,14.46
2023-05-25T21:19:03.615Z,14.40
2023-05-25T21:21:33.918Z,14.36
2023-05-25T21:24:01.820Z,14.34
2023-05-25T21:26:30.983Z,14.29
2023-05-25T21:28:58.464Z,14.24
2023-05-25T21:31:25.838Z,14.21
2023-05-25T21:33:53.239Z,14.16
2023-05-25T21:36:20.803Z,14.13
2023-05-25T21:38:48.029Z,14.12
2023-05-25T21:41:15.277Z,14.09
2023-05-25T21:43:42.471Z,14.05
2023-05-25T21:46:09.722Z,14.00
2023-05-25T21:48:36.939Z,13.98
2023-05-25T21:51:04.309Z,13.96
2023-05-25T21:53:31.519Z,13.90
2023-05-25T21:55:58.752Z,13.86
2023-05-25T21:58:26.107Z,13.84
2023-05-25T22:00:53.451Z,13.80
2023-05-25T22:03:20.732Z,13.78
2023-05-25T22:05:48.307Z,13.75
2023-05-25T22:08:15.595Z,13.72
2023-05-25T22:10:42.822Z,13.70
2023-05-25T22:13:10.102Z,13.67
2023-05-25T22:15:37.292Z,13.65
2023-05-25T22:18:05.924Z,13.64
2023-05-25T22:20:33.422Z,13.62
2023-05-25T22:23:01.084Z,13.61
2023-05-25T22:25:28.202Z,13.60
2023-05-25T22:27:55.924Z,13.60
2023-05-25T22:30:23.113Z,13.60
2023-05-25T22:32:50.529Z,13.59
2023-05-25T22:35:17.700Z,13.56
2023-05-25T22:37:44.975Z,13.53
2023-05-25T22:40:12.616Z,13.51
2023-05-25T22:42:40.269Z,13.49
2023-05-25T22:45:08.070Z,13.45
2023-05-25T22:47:35.722Z,13.42
2023-05-25T22:50:02.982Z,13.38
2023-05-25T22:52:30.353Z,13.36
2023-05-25T22:54:57.552Z,13.33
2023-05-25T22:57:24.840Z,13.28
2023-05-25T22:59:52.002Z,13.24
2023-05-25T23:02:19.258Z,13.22
2023-05-25T23:04:46.505Z,13.18
2023-05-25T23:07:13.849Z,13.15
2023-05-25T23:09:41.255Z,13.10
2023-05-25T23:12:08.563Z,13.07
2023-05-25T23:14:35.723Z,13.03
2023-05-25T23:17:02.937Z,12.98
2023-05-25T23:23:36.115Z,12.83
2023-05-25T23:26:03.717Z,12.76
2023-05-25T23:28:31.181Z,12.71
2023-05-25T23:30:58.414Z,12.66
2023-05-25T23:33:25.636Z,12.62
2023-05-25T23:35:52.830Z,12.57
2023-05-25T23:38:20.127Z,12.53
2023-05-25T23:40:47.401Z,12.51
2023-05-25T23:43:14.665Z,12.47
2023-05-25T23:45:42.080Z,12.41
2023-05-25T23:48:09.341Z,12.36
2023-05-25T23:50:36.611Z,12.33
2023-05-25T23:53:03.805Z,12.29
2023-05-25T23:55:31.118Z,12.23
2023-05-25T23:57:58.315Z,12.20
